• Join FlightAware (Why Join?)
  • Login
  • US Flag 
08:24PM EDT


 

Airport Tracker/Info


-or-


 

Live Flight TrackerFlight Track Log ✈ FFT932 ✈ 07-Sep-2013 ✈ KTPA - KTTN

Flight Track Log - Related Links

Times and Time Zones

All times are in EDT time to prevent confusion due to time zone crossing. See the FFT932 flight status page for this flight to view local times or setup timezone preferences in your user account.

Time Position Orientation Groundspeed Altitude Reporting Facility
EDT Latitude Longitude Course Direction KTS MPH feet Rate Location/Type
06:10PM 28.0060 -82.5380 326° Northwest 158 182 1,500  Level FlightAware
06:10PM 28.0170 -82.5520 312° West 187 215 1,900 1,020 Climbing FlightAware
06:11PM 28.0300 -82.5670 314° West 215 247 2,200 1,200 Climbing FlightAware
06:11PM 28.0440 -82.5840 313° West 246 283 2,700 1,860 Climbing FlightAware
06:11PM 28.0540 -82.5960 313° West 258 297 3,200 2,640 Climbing FlightAware
06:12PM 28.0740 -82.6190 315° West 273 314 4,200 3,000 Climbing FlightAware
06:12PM 28.0980 -82.6410 321° Northwest 273 314 5,500 3,360 Climbing FlightAware
06:12PM 28.1200 -82.6540 332° Northwest 272 313 6,700 3,360 Climbing FlightAware
06:13PM 28.1340 -82.6610 336° Northwest 277 319 7,300 2,760 Climbing FlightAware
06:13PM 28.1560 -82.6740 332° Northwest 284 327 8,200 2,640 Climbing FlightAware
06:13PM 28.1750 -82.6850 333° Northwest 289 333 8,900 3,000 Climbing FlightAware
06:14PM 28.2010 -82.6990 335° Northwest 292 336 10,000 2,460 Climbing FlightAware
06:14PM 28.2470 -82.7250 334° Northwest 318 366 11,200 1,620 Climbing FlightAware
06:15PM 28.2930 -82.7480 336° Northwest 341 392 11,900 1,320 Climbing FlightAware
06:15PM 28.3480 -82.7750 337° Northwest 357 411 12,800 2,220 Climbing FlightAware
06:16PM 28.4040 -82.7900 347° North 350 403 14,600 2,640 Climbing FlightAware
06:16PM 28.4650 -82.7950 356° North 357 411 16,000 2,400 Climbing FlightAware
06:17PM 28.5380 -82.7970 359° North 362 417 17,800 2,160 Climbing FlightAware
06:18PM 28.5960 -82.7970 360° North 367 422 18,900 1,620 Climbing FlightAware
06:18PM 28.6390 -82.7940 North 375 432 19,500 1,500 Climbing FlightAware
06:19PM 28.6920 -82.7900 North 384 442 20,300 1,740 Climbing FlightAware
06:19PM 28.7550 -82.7860 North 390 449 21,400 1,740 Climbing FlightAware
06:20PM 28.8230 -82.7810 North 385 443 22,500 1,260 Climbing FlightAware
06:21PM 28.8930 -82.7750 North 397 457 23,000 1,020 Climbing FlightAware
06:21PM 28.9540 -82.7710 North 402 463 23,700 1,260 Climbing FlightAware
06:22PM 29.0240 -82.7650 North 413 475 24,500 1,440 Climbing FlightAware
06:22PM 29.0930 -82.7600 North 417 480 25,500 1,740 Climbing FlightAware
06:23PM 29.1610 -82.7550 North 417 480 26,600 1,380 Climbing FlightAware
06:23PM 29.2230 -82.7500 North 426 490 27,100 1,080 Climbing FlightAware
06:24PM 29.2980 -82.7440 North 434 499 27,900 1,200 Climbing FlightAware
06:25PM 29.3660 -82.7390 North 442 509 28,600 1,500 Climbing FlightAware
06:25PM 29.4370 -82.7340 North 441 507 29,600 1,380 Climbing FlightAware
06:26PM 29.5090 -82.7280 North 447 514 30,200 960 Climbing FlightAware
06:26PM 29.5860 -82.7220 North 455 524 30,800 1,080 Climbing FlightAware
06:27PM 29.6470 -82.7170 North 455 524 31,400 1,380 Climbing FlightAware
06:28PM 29.7300 -82.7110 North 452 520 32,400 1,260 Climbing FlightAware
06:28PM 29.8050 -82.7050 North 455 524 33,000 1,200 Climbing FlightAware
06:29PM 29.8800 -82.6990 North 450 518 33,900 1,320 Climbing FlightAware
06:29PM 29.9460 -82.6940 North 450 518 34,500 1,140 Climbing FlightAware
06:30PM 30.0240 -82.6890 North 446 513 35,200 1,140 Climbing FlightAware
06:30PM 30.0970 -82.6890 360° North 443 510 35,900 1,200 Climbing FlightAware
06:31PM 30.1690 -82.6880 North 436 502 36,700 900 Climbing FlightAware
06:32PM 30.2350 -82.6880 360° North 439 505 37,000 300 Climbing FlightAware
06:32PM 30.3080 -82.6880 360° North 442 509 37,100 60 Climbing FlightAware
06:33PM 30.3770 -82.6870 North 439 505 37,100  Level FlightAware
06:33PM 30.4510 -82.6750 North 444 511 37,100  Level FlightAware
06:34PM 30.5220 -82.6440 21° North 447 514 37,100  Level FlightAware
06:35PM 30.5840 -82.6160 21° North 446 513 37,100  Level FlightAware
06:35PM 30.6520 -82.5850 21° North 445 512 37,100 -120 Level FlightAware
06:36PM 30.7190 -82.5540 22° Northeast 445 512 37,000 -120 Descending FlightAware
06:36PM 30.7980 -82.5180 21° North 444 511 37,000  Level FlightAware
06:37PM 30.8570 -82.4910 21° North 445 512 37,000 60 Level FlightAware
06:38PM 30.9380 -82.4530 22° Northeast 444 511 37,100 60 Climbing FlightAware
06:38PM 31.0130 -82.4180 22° Northeast 444 511 37,100  Level FlightAware
06:39PM 31.0830 -82.3860 21° North 443 510 37,100  Level FlightAware
06:39PM 31.1520 -82.3540 22° Northeast 443 510 37,100 -120 Level FlightAware
06:40PM 31.2180 -82.3230 22° Northeast 442 509 37,000 -120 Descending FlightAware
06:41PM 31.3090 -82.2810 22° Northeast 442 509 37,000 60 Level FlightAware
06:42PM 31.3850 -82.2450 22° Northeast 442 509 37,100 60 Climbing FlightAware
06:42PM 31.4640 -82.2080 22° Northeast 442 509 37,100  Level FlightAware
06:43PM 31.5490 -82.1690 21° North 440 506 37,100  Level FlightAware
06:44PM 31.6070 -82.1430 21° North 440 506 37,100  Level FlightAware
06:44PM 31.6900 -82.1020 23° Northeast 432 497 37,100 -120 Level FlightAware
06:45PM 31.7720 -82.0630 22° Northeast 428 493 37,000 -120 Descending FlightAware
06:45PM 31.8260 -82.0370 22° Northeast 427 491 37,000  Level FlightAware
06:46PM 31.8890 -82.0080 21° North 426 490 37,000  Level FlightAware
06:47PM 31.9910 -81.9600 22° Northeast 426 490 37,000  Level FlightAware
06:48PM 32.0440 -81.9340 23° Northeast 426 490 37,000 60 Level FlightAware
06:48PM 32.1290 -81.8940 22° Northeast 427 491 37,100 60 Climbing FlightAware
06:49PM 32.1970 -81.8620 22° Northeast 426 490 37,100  Level FlightAware
06:49PM 32.2550 -81.8340 22° Northeast 425 489 37,100  Level FlightAware
06:50PM 32.3180 -81.8040 22° Northeast 423 487 37,100 -120 Level FlightAware
06:51PM 32.3820 -81.7710 24° Northeast 423 487 37,000 -120 Descending FlightAware
06:51PM 32.4380 -81.7330 30° Northeast 423 487 37,000  Level FlightAware
06:52PM 32.5010 -81.6880 31° Northeast 423 487 37,000  Level FlightAware
06:52PM 32.5640 -81.6430 31° Northeast 425 489 37,000  Level FlightAware
06:53PM 32.6230 -81.6010 31° Northeast 425 489 37,000 60 Level FlightAware
06:53PM 32.6790 -81.5610 31° Northeast 426 490 37,100 60 Climbing FlightAware
06:54PM 32.7360 -81.5200 31° Northeast 428 493 37,100  Level FlightAware
06:55PM 32.8030 -81.4720 31° Northeast 429 494 37,100  Level FlightAware
06:55PM 32.8540 -81.4350 31° Northeast 429 494 37,100  Level FlightAware
06:56PM 32.9140 -81.3910 32° Northeast 429 494 37,100  Level FlightAware
06:56PM 32.9670 -81.3530 31° Northeast 428 493 37,100  Level FlightAware
06:57PM 33.0350 -81.3040 31° Northeast 429 494 37,100  Level FlightAware
06:58PM 33.0940 -81.2610 31° Northeast 429 494 37,100  Level FlightAware
06:58PM 33.1560 -81.2160 31° Northeast 428 493 37,100 -120 Level FlightAware
06:59PM 33.2150 -81.1730 31° Northeast 427 491 37,000  Descending FlightAware
06:59PM 33.2670 -81.1360 31° Northeast 427 491 37,100 60 Climbing FlightAware
07:00PM 33.3320 -81.0880 32° Northeast 426 490 37,100 -120 Level FlightAware
07:00PM 33.3920 -81.0440 31° Northeast 426 490 37,000  Descending FlightAware
07:01PM 33.4500 -81.0010 32° Northeast 426 490 37,100 60 Climbing FlightAware
07:02PM 33.5060 -80.9600 31° Northeast 423 487 37,100 -120 Level FlightAware
07:02PM 33.5680 -80.9150 31° Northeast 422 486 37,000 -120 Descending FlightAware
07:02PM 33.5890 -80.8990 32° Northeast 423 487 37,000  Level FlightAware
07:03PM 33.6819 -80.8358 32° Northeast 423 487 37,000  Level Jacksonville Center
07:09PM 34.2480 -80.4100 32° Northeast 424 488 37,000  Level FlightAware
07:09PM 34.2490 -80.4090 40° Northeast 424 488 37,000  Level FlightAware
07:09PM 34.2750 -80.3900 31° Northeast 424 488 37,000  Level FlightAware
07:11PM 34.4300 -80.2730 32° Northeast 420 483 37,000  Level FlightAware
07:11PM 34.4770 -80.2390 31° Northeast 418 481 37,100  Climbing FlightAware
07:11PM 34.4900 -80.2280 35° Northeast 418 481 37,000 -300 Descending FlightAware
07:12PM 34.5150 -80.2090 32° Northeast 417 480 37,000  Level FlightAware
07:12PM 34.5360 -80.1940 30° Northeast 417 480 37,000  Level FlightAware
07:12PM 34.5480 -80.1850 32° Northeast 417 480 37,000  Level FlightAware
07:13PM 34.6600 -80.1000 32° Northeast 416 479 37,000  Level FlightAware
07:14PM 34.7180 -80.0560 32° Northeast 417 480 37,000 60 Level FlightAware
07:14PM 34.7710 -80.0150 32° Northeast 417 480 37,100 60 Climbing FlightAware
07:15PM 34.8330 -79.9690 31° Northeast 415 478 37,100  Level FlightAware
07:16PM 34.8910 -79.9240 32° Northeast 413 475 37,100  Level FlightAware
07:16PM 34.9430 -79.8850 32° Northeast 412 474 37,100 -120 Level FlightAware
07:17PM 35.0020 -79.8390 33° Northeast 411 473 37,000 -120 Descending FlightAware
07:18PM 35.0800 -79.7790 32° Northeast 411 473 37,000  Level FlightAware
07:18PM 35.1450 -79.7290 32° Northeast 633 728 37,000  Level FlightAware
07:19PM 35.1930 -79.6930 32° Northeast 407 468 37,000  Level FlightAware
07:19PM 35.2540 -79.6460 32° Northeast 414 476 37,000 60 Level FlightAware
07:20PM 35.3050 -79.6060 33° Northeast 417 480 37,100 60 Climbing FlightAware
07:21PM 35.3750 -79.5520 32° Northeast 416 479 37,100  Level FlightAware
07:21PM 35.4310 -79.5080 33° Northeast 417 480 37,100  Level FlightAware
07:22PM 35.4970 -79.4570 32° Northeast 417 480 37,100  Level FlightAware
07:22PM 35.5510 -79.4160 32° Northeast 408 470 37,100  Level FlightAware
07:23PM 35.6070 -79.3720 33° Northeast 406 467 37,100  Level FlightAware
07:24PM 35.6660 -79.3260 32° Northeast 402 463 37,100 -120 Level FlightAware
07:24PM 35.7180 -79.2850 33° Northeast 401 461 37,000 -120 Descending FlightAware
07:25PM 35.7780 -79.2380 32° Northeast 406 467 37,000  Level FlightAware
07:25PM 35.8320 -79.1960 32° Northeast 405 466 37,000  Level FlightAware
07:26PM 35.8880 -79.1520 32° Northeast 405 466 37,000  Level FlightAware
07:26PM 35.9430 -79.1090 32° Northeast 400 460 37,000  Level FlightAware
07:27PM 35.9980 -79.0650 33° Northeast 403 464 37,000  Level FlightAware
07:28PM 36.0550 -79.0200 33° Northeast 404 465 37,000 60 Level FlightAware
07:28PM 36.1110 -78.9760 32° Northeast 406 467 37,100 60 Climbing FlightAware
07:29PM 36.1950 -78.9090 33° Northeast 416 479 37,100  Level FlightAware
07:30PM 36.2530 -78.8630 33° Northeast 417 480 37,100  Level FlightAware
07:30PM 36.3080 -78.8190 33° Northeast 417 480 37,100  Level FlightAware
07:31PM 36.3660 -78.7730 33° Northeast 417 480 37,100  Level FlightAware
07:31PM 36.4190 -78.7310 33° Northeast 416 479 37,100  Level FlightAware
07:32PM 36.4770 -78.6850 33° Northeast 415 478 37,100  Level FlightAware
07:33PM 36.5380 -78.6350 33° Northeast 414 476 37,100 -180 Level FlightAware
07:33PM 36.5860 -78.5970 32° Northeast 414 476 36,900 -480 Descending FlightAware
07:34PM 36.6500 -78.5450 33° Northeast 409 471 36,600 -540 Descending FlightAware
07:34PM 36.7030 -78.5030 32° Northeast 409 471 36,300 -420 Descending FlightAware
07:35PM 36.7670 -78.4520 33° Northeast 410 472 36,100 -180 Descending FlightAware
07:36PM 36.8160 -78.4140 32° Northeast 410 472 36,100  Level FlightAware
07:36PM 36.8650 -78.3760 32° Northeast 410 472 36,100  Level FlightAware
07:37PM 36.9160 -78.3360 32° Northeast 410 472 36,100 -1,200 Level FlightAware
07:38PM 37.0010 -78.2620 35° Northeast 406 467 34,600 -1,800 Descending FlightAware
07:38PM 37.0570 -78.2160 33° Northeast 406 467 34,000 -900 Descending FlightAware
07:39PM 37.1070 -78.1750 33° Northeast 406 467 33,700 -660 Descending FlightAware
07:40PM 37.2910 -78.0240 33° Northeast 403 464 32,500 -600 Descending FlightAware
07:41PM 37.3450 -77.9800 33° Northeast 403 464 32,200 -540 Descending FlightAware
07:42PM 37.3970 -77.9370 33° Northeast 402 463 31,900 -660 Descending FlightAware
07:42PM 37.4510 -77.8920 33° Northeast 402 463 31,500 -720 Descending FlightAware
07:43PM 37.5070 -77.8460 33° Northeast 401 461 31,100 -420 Descending FlightAware
07:43PM 37.5630 -77.7980 34° Northeast 394 453 31,000 -120 Descending FlightAware
07:44PM 37.6120 -77.7530 36° Northeast 394 453 31,000  Level FlightAware
07:45PM 37.6620 -77.7080 35° Northeast 395 455 31,000  Level FlightAware
07:45PM 37.7190 -77.6560 36° Northeast 396 456 31,000  Level FlightAware
07:46PM 37.7670 -77.6130 35° Northeast 397 457 31,000 60 Level FlightAware
07:46PM 37.8210 -77.5630 36° Northeast 398 458 31,100 60 Climbing FlightAware
07:47PM 37.8740 -77.5150 36° Northeast 399 459 31,100  Level FlightAware
07:48PM 37.9300 -77.4640 36° Northeast 399 459 31,100  Level FlightAware
07:48PM 37.9830 -77.4150 36° Northeast 398 458 31,100  Level FlightAware
07:49PM 38.0310 -77.3710 36° Northeast 397 457 31,100 -120 Level FlightAware
07:49PM 38.0840 -77.3230 35° Northeast 396 456 31,000 -120 Descending FlightAware
07:50PM 38.1380 -77.2740 36° Northeast 395 455 31,000  Level FlightAware
07:50PM 38.1860 -77.2290 36° Northeast 397 457 31,000  Level FlightAware
07:51PM 38.2400 -77.1790 36° Northeast 397 457 31,000  Level FlightAware
07:52PM 38.2930 -77.1300 36° Northeast 397 457 31,000  Level FlightAware
07:52PM 38.3460 -77.0810 36° Northeast 398 458 31,000  Level FlightAware
07:53PM 38.3940 -77.0370 36° Northeast 398 458 31,000  Level FlightAware
07:53PM 38.4480 -76.9860 36° Northeast 399 459 31,000 -1,200 Level FlightAware
07:54PM 38.5020 -76.9360 36° Northeast 401 461 29,600 -2,940 Descending FlightAware
07:54PM 38.5500 -76.8910 36° Northeast 414 476 27,700 -3,000 Descending FlightAware
07:55PM 38.6060 -76.8390 36° Northeast 416 479 26,200 -2,280 Descending FlightAware
07:56PM 38.6640 -76.7840 37° Northeast 406 467 24,900 -2,040 Descending FlightAware
07:56PM 38.6930 -76.7520 41° Northeast 405 466 24,300 -1,380 Descending FlightAware
07:56PM 38.7090 -76.7200 57° Northeast 415 478 24,100 -780 Descending FlightAware
07:57PM 38.7270 -76.6430 73° East 442 509 23,700 -1,260 Descending FlightAware
07:57PM 38.7460 -76.5520 75° East 433 498 22,700 -2,220 Descending FlightAware
07:58PM 38.7640 -76.4640 75° East 424 488 21,100 -2,520 Descending FlightAware
07:59PM 38.7800 -76.3890 75° East 413 475 19,900 -2,340 Descending FlightAware
07:59PM 38.7980 -76.3040 75° East 404 465 18,500 -2,340 Descending FlightAware
08:00PM 38.8120 -76.2320 76° East 398 458 17,300 -1,920 Descending FlightAware
08:01PM 38.8478 -76.0608 76° East 397 457 15,000 -1,020 Descending Washington Center
08:02PM 38.8733 -75.9303 76° East 385 443 15,000  Level Washington Center
08:03PM 38.9361 -75.8264 52° Northeast 367 422 15,000 -360 Level Washington Center
08:05PM 39.0833 -75.7500 22° Northeast 373 429 14,200 -900 Descending Philadelphia TRACON
08:05PM 39.1833 -75.7167 14° North 354 407 12,800 -1,140 Descending Philadelphia TRACON
08:06PM 39.2500 -75.6667 30° Northeast 308 354 12,100 -420 Descending Philadelphia TRACON
08:07PM 39.3333 -75.6000 32° Northeast 320 368 12,000 -60 Descending Philadelphia TRACON
08:08PM 39.4000 -75.5500 30° Northeast 318 366 12,000  Level Philadelphia TRACON
08:09PM 39.4667 -75.4833 38° Northeast 320 368 12,000  Level Philadelphia TRACON
08:10PM 39.5500 -75.4167 32° Northeast 319 367 12,000  Level Philadelphia TRACON
08:11PM 39.6167 -75.3667 30° Northeast 320 368 12,000 -480 Level Philadelphia TRACON
08:12PM 39.7000 -75.3000 32° Northeast 294 338 11,100 -960 Descending Philadelphia TRACON
08:13PM 39.7667 -75.2500 30° Northeast 296 341 10,100 -960 Descending Philadelphia TRACON
08:14PM 39.8333 -75.1833 38° Northeast 289 333 9,200 -900 Descending Philadelphia TRACON
08:20PM 40.1180 -74.9460 38° Northeast 231 266 4,900 -780 Descending FlightAware
08:20PM 40.1390 -74.9290 32° Northeast 231 266 4,900 -1,320 Level FlightAware
08:20PM 40.1650 -74.9080 32° Northeast 232 267 3,800 -2,040 Descending FlightAware
08:21PM 40.1850 -74.8910 33° Northeast 227 261 3,400 -1,140 Descending FlightAware
08:21PM 40.2030 -74.8750 34° Northeast 219 252 3,000 -1,380 Descending FlightAware
08:21PM 40.2150 -74.8610 42° Northeast 216 249 2,600 -1,500 Descending FlightAware
08:22PM 40.2340 -74.8300 51° Northeast 207 238 2,000 -1,440 Descending FlightAware
08:22PM 40.2470 -74.8050 56° Northeast 196 226 1,600 -840 Descending FlightAware
08:23PM 40.2590 -74.7780 60° Northeast 187 215 1,400 -420 Descending FlightAware
08:23PM 40.2670 -74.7610 58° Northeast 164 189 1,300 -300 Descending FlightAware
08:23PM 40.2760 -74.7460 52° Northeast 159 183 1,200 -240 Descending FlightAware
08:23PM 40.2810 -74.7440 17° North 155 178 1,200  Level FlightAware
08:23PM 40.2830 -74.7440 360° North 152 175 1,200 -480 Level FlightAware
08:24PM 40.2960 -74.7540 330° Northwest 144 166 1,000 -540 Descending FlightAware
08:24PM 40.3000 -74.7620 303° West 138 159 900 -720 Descending FlightAware
08:24PM 40.3010 -74.7660 288° West 128 147 800 -240 Descending FlightAware
08:24PM 40.3040 -74.7830 283° West 128 147 800 -420 Level FlightAware
08:25PM 40.2950 -74.7870 199° South 124 143 600 -480 Descending FlightAware
08:25PM 40.2870 -74.8000 231° Southwest 124 143 600  Level FlightAware
08:32PM 40.2667 -74.8000 246° West  Level FlightAware Approximate
08:33PM 40.2767 -74.8135 246° West  Level Estimated